sensor_id;sensor_type;location;lat;lon;timestamp;pressure;altitude;pressure_sealevel;temperature;humidity
48862;BME280;34681;49.188;-0.374;2023-04-20T00:01:25;101577.88;;;12.54;56.42
48862;BME280;34681;49.188;-0.374;2023-04-20T00:03:51;101579.78;;;12.63;56.26
48862;BME280;34681;49.188;-0.374;2023-04-20T00:06:16;101576.13;;;12.53;56.25
48862;BME280;34681;49.188;-0.374;2023-04-20T00:08:42;101575.31;;;12.62;55.75
48862;BME280;34681;49.188;-0.374;2023-04-20T00:11:08;101581.38;;;12.65;55.37
48862;BME280;34681;49.188;-0.374;2023-04-20T00:13:33;101582.09;;;12.58;55.09
48862;BME280;34681;49.188;-0.374;2023-04-20T00:15:59;101594.75;;;12.49;55.28
48862;BME280;34681;49.188;-0.374;2023-04-20T00:18:24;101592.00;;;12.49;54.28
48862;BME280;34681;49.188;-0.374;2023-04-20T00:20:49;101576.69;;;12.47;54.48
48862;BME280;34681;49.188;-0.374;2023-04-20T00:23:15;101597.22;;;12.52;54.04
48862;BME280;34681;49.188;-0.374;2023-04-20T00:25:41;101586.19;;;12.33;54.08
48862;BME280;34681;49.188;-0.374;2023-04-20T00:28:06;101588.34;;;12.39;54.01
48862;BME280;34681;49.188;-0.374;2023-04-20T00:30:31;101583.00;;;12.37;53.89
48862;BME280;34681;49.188;-0.374;2023-04-20T00:32:57;101584.56;;;12.30;53.83
48862;BME280;34681;49.188;-0.374;2023-04-20T00:35:22;101587.78;;;12.35;53.60
48862;BME280;34681;49.188;-0.374;2023-04-20T00:37:47;101579.94;;;12.31;53.49
48862;BME280;34681;49.188;-0.374;2023-04-20T00:40:13;101580.25;;;12.37;53.41
48862;BME280;34681;49.188;-0.374;2023-04-20T00:42:38;101567.47;;;12.57;52.58
48862;BME280;34681;49.188;-0.374;2023-04-20T00:45:05;101577.00;;;12.53;52.00
48862;BME280;34681;49.188;-0.374;2023-04-20T00:47:31;101570.63;;;12.43;51.72
48862;BME280;34681;49.188;-0.374;2023-04-20T00:49:56;101576.03;;;12.64;51.34
48862;BME280;34681;49.188;-0.374;2023-04-20T00:52:22;101566.50;;;12.58;51.36
48862;BME280;34681;49.188;-0.374;2023-04-20T00:54:47;101566.50;;;12.58;51.25
48862;BME280;34681;49.188;-0.374;2023-04-20T00:57:13;101560.38;;;12.55;51.27
48862;BME280;34681;49.188;-0.374;2023-04-20T00:59:39;101563.69;;;12.49;50.66
48862;BME280;34681;49.188;-0.374;2023-04-20T01:02:05;101567.56;;;12.36;50.75
48862;BME280;34681;49.188;-0.374;2023-04-20T01:04:30;101549.22;;;12.37;50.93
48862;BME280;34681;49.188;-0.374;2023-04-20T01:06:56;101547.19;;;12.39;50.69
48862;BME280;34681;49.188;-0.374;2023-04-20T01:09:21;101544.06;;;12.53;50.33
48862;BME280;34681;49.188;-0.374;2023-04-20T01:11:47;101550.75;;;12.60;50.63
48862;BME280;34681;49.188;-0.374;2023-04-20T01:14:12;101540.63;;;12.71;49.61
48862;BME280;34681;49.188;-0.374;2023-04-20T01:16:37;101535.75;;;12.84;49.01
48862;BME280;34681;49.188;-0.374;2023-04-20T01:19:03;101541.06;;;12.66;49.22
48862;BME280;34681;49.188;-0.374;2023-04-20T01:21:28;101537.69;;;12.43;49.36
48862;BME280;34681;49.188;-0.374;2023-04-20T01:23:54;101531.59;;;12.40;49.10
48862;BME280;34681;49.188;-0.374;2023-04-20T01:26:22;101534.78;;;12.45;49.04
48862;BME280;34681;49.188;-0.374;2023-04-20T01:28:47;101525.34;;;12.28;48.82
48862;BME280;34681;49.188;-0.374;2023-04-20T01:31:13;101517.97;;;12.19;48.91
48862;BME280;34681;49.188;-0.374;2023-04-20T01:33:39;101520.00;;;12.26;48.49
48862;BME280;34681;49.188;-0.374;2023-04-20T01:36:05;101521.28;;;12.22;48.29
48862;BME280;34681;49.188;-0.374;2023-04-20T01:38:31;101517.81;;;12.20;48.53
48862;BME280;34681;49.188;-0.374;2023-04-20T01:41:03;101520.00;;;11.96;48.50
48862;BME280;34681;49.188;-0.374;2023-04-20T01:43:29;101520.97;;;11.85;48.79
48862;BME280;34681;49.188;-0.374;2023-04-20T01:45:55;101518.63;;;11.80;48.95
48862;BME280;34681;49.188;-0.374;2023-04-20T01:48:20;101522.91;;;11.94;48.88
48862;BME280;34681;49.188;-0.374;2023-04-20T01:50:49;101518.09;;;11.87;49.33
48862;BME280;34681;49.188;-0.374;2023-04-20T01:53:15;101519.28;;;11.73;49.76
48862;BME280;34681;49.188;-0.374;2023-04-20T01:55:40;101529.78;;;11.47;50.34
48862;BME280;34681;49.188;-0.374;2023-04-20T01:58:06;101523.72;;;11.43;50.78
48862;BME280;34681;49.188;-0.374;2023-04-20T02:00:31;101515.75;;;11.40;50.93
48862;BME280;34681;49.188;-0.374;2023-04-20T02:02:56;101519.03;;;11.34;50.88
48862;BME280;34681;49.188;-0.374;2023-04-20T02:05:22;101514.59;;;11.22;50.69
48862;BME280;34681;49.188;-0.374;2023-04-20T02:07:47;101522.03;;;11.31;50.23
48862;BME280;34681;49.188;-0.374;2023-04-20T02:10:12;101518.06;;;11.24;49.71
48862;BME280;34681;49.188;-0.374;2023-04-20T02:12:38;101510.34;;;11.29;49.47
48862;BME280;34681;49.188;-0.374;2023-04-20T02:15:04;101506.22;;;11.35;49.49
48862;BME280;34681;49.188;-0.374;2023-04-20T02:17:30;101506.09;;;11.25;49.97
48862;BME280;34681;49.188;-0.374;2023-04-20T02:19:57;101505.66;;;11.20;50.42
48862;BME280;34681;49.188;-0.374;2023-04-20T02:22:22;101508.06;;;11.13;51.59
48862;BME280;34681;49.188;-0.374;2023-04-20T02:24:47;101513.25;;;11.16;52.34
48862;BME280;34681;49.188;-0.374;2023-04-20T02:27:13;101509.56;;;11.06;53.80
48862;BME280;34681;49.188;-0.374;2023-04-20T02:29:38;101508.19;;;11.12;53.64
48862;BME280;34681;49.188;-0.374;2023-04-20T02:32:04;101517.41;;;11.11;54.35
48862;BME280;34681;49.188;-0.374;2023-04-20T02:34:30;101513.66;;;11.12;54.66
48862;BME280;34681;49.188;-0.374;2023-04-20T02:36:55;101509.91;;;11.13;54.72
48862;BME280;34681;49.188;-0.374;2023-04-20T02:39:20;101510.44;;;11.07;55.14
48862;BME280;34681;49.188;-0.374;2023-04-20T02:41:46;101509.13;;;11.01;55.21
48862;BME280;34681;49.188;-0.374;2023-04-20T02:44:11;101510.22;;;10.98;55.28
48862;BME280;34681;49.188;-0.374;2023-04-20T02:46:36;101513.41;;;10.83;55.45
48862;BME280;34681;49.188;-0.374;2023-04-20T02:49:02;101513.94;;;10.65;55.50
48862;BME280;34681;49.188;-0.374;2023-04-20T02:51:27;101511.47;;;10.62;55.27
48862;BME280;34681;49.188;-0.374;2023-04-20T02:53:53;101508.66;;;10.53;54.27
48862;BME280;34681;49.188;-0.374;2023-04-20T02:56:18;101502.63;;;10.59;54.27
48862;BME280;34681;49.188;-0.374;2023-04-20T02:58:46;101495.84;;;10.53;54.37
48862;BME280;34681;49.188;-0.374;2023-04-20T03:01:12;101510.53;;;10.52;54.64
48862;BME280;34681;49.188;-0.374;2023-04-20T03:03:38;101496.59;;;10.44;55.03
48862;BME280;34681;49.188;-0.374;2023-04-20T03:06:03;101501.44;;;10.52;55.34
48862;BME280;34681;49.188;-0.374;2023-04-20T03:08:28;101502.28;;;10.63;55.04
48862;BME280;34681;49.188;-0.374;2023-04-20T03:10:54;101503.53;;;10.59;54.94
48862;BME280;34681;49.188;-0.374;2023-04-20T03:13:19;101500.97;;;10.35;54.85
48862;BME280;34681;49.188;-0.374;2023-04-20T03:15:44;101504.22;;;10.29;54.60
48862;BME280;34681;49.188;-0.374;2023-04-20T03:18:10;101497.47;;;10.33;54.16
48862;BME280;34681;49.188;-0.374;2023-04-20T03:20:35;101492.78;;;10.24;53.87
48862;BME280;34681;49.188;-0.374;2023-04-20T03:23:01;101500.22;;;10.33;54.29
48862;BME280;34681;49.188;-0.374;2023-04-20T03:25:26;101498.59;;;10.31;53.55
48862;BME280;34681;49.188;-0.374;2023-04-20T03:27:52;101501.31;;;10.42;53.63
48862;BME280;34681;49.188;-0.374;2023-04-20T03:30:17;101492.75;;;10.47;53.54
48862;BME280;34681;49.188;-0.374;2023-04-20T03:32:43;101505.59;;;10.35;53.96
48862;BME280;34681;49.188;-0.374;2023-04-20T03:35:09;101501.84;;;10.25;54.16
48862;BME280;34681;49.188;-0.374;2023-04-20T03:37:37;101506.56;;;10.23;54.56
48862;BME280;34681;49.188;-0.374;2023-04-20T03:40:03;101501.34;;;10.20;54.49
48862;BME280;34681;49.188;-0.374;2023-04-20T03:42:30;101486.16;;;10.16;53.90
48862;BME280;34681;49.188;-0.374;2023-04-20T03:44:56;101493.50;;;10.15;53.81
48862;BME280;34681;49.188;-0.374;2023-04-20T03:47:21;101496.84;;;10.07;53.73
48862;BME280;34681;49.188;-0.374;2023-04-20T03:49:46;101489.28;;;10.00;54.19
48862;BME280;34681;49.188;-0.374;2023-04-20T03:52:12;101491.28;;;9.98;54.02
48862;BME280;34681;49.188;-0.374;2023-04-20T03:54:38;101481.47;;;9.95;54.07
48862;BME280;34681;49.188;-0.374;2023-04-20T03:57:03;101484.44;;;9.92;54.16
48862;BME280;34681;49.188;-0.374;2023-04-20T03:59:28;101485.69;;;9.88;53.64
48862;BME280;34681;49.188;-0.374;2023-04-20T04:01:54;101488.78;;;9.83;54.33
48862;BME280;34681;49.188;-0.374;2023-04-20T04:04:20;101497.63;;;9.87;53.71
48862;BME280;34681;49.188;-0.374;2023-04-20T04:06:46;101490.16;;;10.00;52.93
48862;BME280;34681;49.188;-0.374;2023-04-20T04:09:11;101486.81;;;9.85;52.54
48862;BME280;34681;49.188;-0.374;2023-04-20T04:11:36;101498.88;;;9.94;52.56
48862;BME280;34681;49.188;-0.374;2023-04-20T04:14:02;101494.50;;;9.80;52.73
48862;BME280;34681;49.188;-0.374;2023-04-20T04:16:30;101485.31;;;9.70;52.34
48862;BME280;34681;49.188;-0.374;2023-04-20T04:18:55;101496.25;;;9.81;52.81
48862;BME280;34681;49.188;-0.374;2023-04-20T04:21:21;101489.53;;;9.74;52.92
48862;BME280;34681;49.188;-0.374;2023-04-20T04:23:47;101491.38;;;9.74;52.63
48862;BME280;34681;49.188;-0.374;2023-04-20T04:26:12;101488.78;;;9.61;52.82
48862;BME280;34681;49.188;-0.374;2023-04-20T04:28:38;101490.66;;;9.61;53.07
48862;BME280;34681;49.188;-0.374;2023-04-20T04:31:03;101482.06;;;9.65;52.48
48862;BME280;34681;49.188;-0.374;2023-04-20T04:33:30;101478.59;;;9.63;52.36
48862;BME280;34681;49.188;-0.374;2023-04-20T04:35:57;101488.91;;;9.71;52.24
48862;BME280;34681;49.188;-0.374;2023-04-20T04:38:23;101483.81;;;9.66;52.28
48862;BME280;34681;49.188;-0.374;2023-04-20T04:40:48;101482.47;;;9.61;52.69
48862;BME280;34681;49.188;-0.374;2023-04-20T04:43:14;101494.72;;;9.55;52.65
48862;BME280;34681;49.188;-0.374;2023-04-20T04:45:40;101484.28;;;9.49;52.72
48862;BME280;34681;49.188;-0.374;2023-04-20T04:48:06;101489.63;;;9.50;52.58
48862;BME280;34681;49.188;-0.374;2023-04-20T04:50:33;101475.75;;;9.53;52.20
48862;BME280;34681;49.188;-0.374;2023-04-20T04:52:59;101479.06;;;9.46;52.18
48862;BME280;34681;49.188;-0.374;2023-04-20T04:55:24;101504.28;;;9.49;51.87
48862;BME280;34681;49.188;-0.374;2023-04-20T04:57:50;101492.88;;;9.44;52.18
48862;BME280;34681;49.188;-0.374;2023-04-20T05:00:16;101493.22;;;9.51;51.54
48862;BME280;34681;49.188;-0.374;2023-04-20T05:02:42;101500.06;;;9.45;51.73
48862;BME280;34681;49.188;-0.374;2023-04-20T05:05:07;101496.53;;;9.21;51.95
48862;BME280;34681;49.188;-0.374;2023-04-20T05:07:33;101502.72;;;9.12;52.28
48862;BME280;34681;49.188;-0.374;2023-04-20T05:09:59;101499.72;;;9.15;52.18
48862;BME280;34681;49.188;-0.374;2023-04-20T05:12:24;101494.78;;;9.20;52.21
48862;BME280;34681;49.188;-0.374;2023-04-20T05:14:51;101491.47;;;9.39;52.01
48862;BME280;34681;49.188;-0.374;2023-04-20T05:17:16;101495.25;;;9.71;51.71
48862;BME280;34681;49.188;-0.374;2023-04-20T05:19:42;101501.84;;;9.80;50.93
48862;BME280;34681;49.188;-0.374;2023-04-20T05:22:07;101516.22;;;9.60;50.92
48862;BME280;34681;49.188;-0.374;2023-04-20T05:24:32;101507.31;;;9.69;51.00
48862;BME280;34681;49.188;-0.374;2023-04-20T05:26:58;101513.63;;;10.14;49.96
48862;BME280;34681;49.188;-0.374;2023-04-20T05:29:23;101515.25;;;10.05;50.17
48862;BME280;34681;49.188;-0.374;2023-04-20T05:31:48;101515.53;;;10.02;50.28
48862;BME280;34681;49.188;-0.374;2023-04-20T05:34:14;101525.34;;;9.94;49.86
48862;BME280;34681;49.188;-0.374;2023-04-20T05:36:39;101520.09;;;10.13;50.12
48862;BME280;34681;49.188;-0.374;2023-04-20T05:39:05;101532.91;;;10.12;49.69
48862;BME280;34681;49.188;-0.374;2023-04-20T05:41:30;101531.91;;;10.13;49.49
48862;BME280;34681;49.188;-0.374;2023-04-20T05:43:56;101522.22;;;9.98;49.65
48862;BME280;34681;49.188;-0.374;2023-04-20T05:46:21;101536.63;;;10.00;49.49
48862;BME280;34681;49.188;-0.374;2023-04-20T05:48:47;101529.03;;;10.15;49.75
48862;BME280;34681;49.188;-0.374;2023-04-20T05:51:13;101542.25;;;10.10;49.52
48862;BME280;34681;49.188;-0.374;2023-04-20T05:53:38;101535.66;;;10.24;49.36
48862;BME280;34681;49.188;-0.374;2023-04-20T05:56:04;101535.16;;;10.30;49.01
48862;BME280;34681;49.188;-0.374;2023-04-20T05:58:31;101537.97;;;10.51;48.12
48862;BME280;34681;49.188;-0.374;2023-04-20T06:00:57;101543.72;;;11.23;47.41
48862;BME280;34681;49.188;-0.374;2023-04-20T06:03:23;101545.09;;;12.22;44.99
48862;BME280;34681;49.188;-0.374;2023-04-20T06:05:48;101542.66;;;13.94;42.11
48862;BME280;34681;49.188;-0.374;2023-04-20T06:08:13;101548.00;;;14.33;40.26
48862;BME280;34681;49.188;-0.374;2023-04-20T06:10:39;101554.03;;;15.01;39.26
48862;BME280;34681;49.188;-0.374;2023-04-20T06:13:04;101560.78;;;15.78;37.90
48862;BME280;34681;49.188;-0.374;2023-04-20T06:15:30;101562.38;;;15.81;36.94
48862;BME280;34681;49.188;-0.374;2023-04-20T06:17:55;101557.97;;;15.96;37.42
48862;BME280;34681;49.188;-0.374;2023-04-20T06:20:20;101555.13;;;16.40;36.66
48862;BME280;34681;49.188;-0.374;2023-04-20T06:22:46;101561.97;;;16.27;36.17
48862;BME280;34681;49.188;-0.374;2023-04-20T06:25:12;101562.25;;;16.50;35.85
48862;BME280;34681;49.188;-0.374;2023-04-20T06:27:38;101553.25;;;16.82;35.71
48862;BME280;34681;49.188;-0.374;2023-04-20T06:30:04;101557.69;;;17.50;34.97
48862;BME280;34681;49.188;-0.374;2023-04-20T06:32:30;101561.13;;;17.44;34.42
48862;BME280;34681;49.188;-0.374;2023-04-20T06:34:55;101547.19;;;16.79;34.58
48862;BME280;34681;49.188;-0.374;2023-04-20T06:37:20;101565.00;;;16.50;36.06
48862;BME280;34681;49.188;-0.374;2023-04-20T06:39:46;101556.28;;;18.11;33.32
48862;BME280;34681;49.188;-0.374;2023-04-20T06:42:11;101555.69;;;19.42;31.19
48862;BME280;34681;49.188;-0.374;2023-04-20T06:44:38;101565.66;;;21.57;28.32
48862;BME280;34681;49.188;-0.374;2023-04-20T06:47:03;101565.41;;;22.99;26.67
48862;BME280;34681;49.188;-0.374;2023-04-20T06:49:29;101571.88;;;23.67;25.22
48862;BME280;34681;49.188;-0.374;2023-04-20T06:51:54;101567.13;;;23.68;25.31
48862;BME280;34681;49.188;-0.374;2023-04-20T06:54:19;101569.06;;;24.20;24.96
48862;BME280;34681;49.188;-0.374;2023-04-20T06:56:45;101576.72;;;24.64;24.13
48862;BME280;34681;49.188;-0.374;2023-04-20T06:59:10;101574.13;;;24.76;23.52
48862;BME280;34681;49.188;-0.374;2023-04-20T07:01:36;101564.88;;;24.76;23.48
48862;BME280;34681;49.188;-0.374;2023-04-20T07:04:01;101563.91;;;26.03;23.04
48862;BME280;34681;49.188;-0.374;2023-04-20T07:06:26;101561.50;;;26.56;21.71
48862;BME280;34681;49.188;-0.374;2023-04-20T07:08:52;101567.16;;;26.68;21.27
48862;BME280;34681;49.188;-0.374;2023-04-20T07:11:18;101569.88;;;27.11;21.54
48862;BME280;34681;49.188;-0.374;2023-04-20T07:13:43;101568.47;;;27.21;20.80
48862;BME280;34681;49.188;-0.374;2023-04-20T07:16:08;101573.78;;;26.30;21.67
48862;BME280;34681;49.188;-0.374;2023-04-20T07:18:34;101570.44;;;25.97;21.51
48862;BME280;34681;49.188;-0.374;2023-04-20T07:21:00;101566.03;;;26.08;21.58
48862;BME280;34681;49.188;-0.374;2023-04-20T07:23:25;101568.22;;;25.49;22.11
48862;BME280;34681;49.188;-0.374;2023-04-20T07:25:51;101578.19;;;26.01;21.53
48862;BME280;34681;49.188;-0.374;2023-04-20T07:28:16;101560.00;;;25.16;22.50
48862;BME280;34681;49.188;-0.374;2023-04-20T07:30:41;101570.41;;;26.47;21.52
48862;BME280;34681;49.188;-0.374;2023-04-20T07:33:07;101576.03;;;26.22;21.15
48862;BME280;34681;49.188;-0.374;2023-04-20T07:35:33;101560.19;;;26.34;21.10
48862;BME280;34681;49.188;-0.374;2023-04-20T07:37:58;101573.38;;;26.09;21.23
48862;BME280;34681;49.188;-0.374;2023-04-20T07:40:24;101568.16;;;25.17;22.14
48862;BME280;34681;49.188;-0.374;2023-04-20T07:42:49;101562.84;;;25.03;22.68
48862;BME280;34681;49.188;-0.374;2023-04-20T07:45:15;101559.97;;;25.54;22.45
48862;BME280;34681;49.188;-0.374;2023-04-20T07:47:40;101558.19;;;24.77;22.53
48862;BME280;34681;49.188;-0.374;2023-04-20T07:50:09;101563.69;;;24.05;23.33
48862;BME280;34681;49.188;-0.374;2023-04-20T07:52:34;101560.31;;;24.81;23.16
48862;BME280;34681;49.188;-0.374;2023-04-20T07:54:59;101560.03;;;23.72;23.83
48862;BME280;34681;49.188;-0.374;2023-04-20T07:57:25;101556.38;;;24.37;23.70
48862;BME280;34681;49.188;-0.374;2023-04-20T07:59:51;101552.75;;;23.77;24.07
48862;BME280;34681;49.188;-0.374;2023-04-20T08:02:16;101559.56;;;23.55;24.15
48862;BME280;34681;49.188;-0.374;2023-04-20T08:04:42;101559.47;;;22.74;24.60
48862;BME280;34681;49.188;-0.374;2023-04-20T08:07:09;101552.31;;;22.52;25.50
48862;BME280;34681;49.188;-0.374;2023-04-20T08:09:34;101549.78;;;22.63;25.34
48862;BME280;34681;49.188;-0.374;2023-04-20T08:12:00;101558.28;;;23.51;24.69
48862;BME280;34681;49.188;-0.374;2023-04-20T08:14:26;101555.59;;;22.27;25.42
48862;BME280;34681;49.188;-0.374;2023-04-20T08:16:54;101561.09;;;22.55;25.26
48862;BME280;34681;49.188;-0.374;2023-04-20T08:19:20;101563.84;;;22.14;25.35
48862;BME280;34681;49.188;-0.374;2023-04-20T08:21:45;101549.91;;;22.49;25.16
48862;BME280;34681;49.188;-0.374;2023-04-20T08:24:10;101565.16;;;22.18;25.18
48862;BME280;34681;49.188;-0.374;2023-04-20T08:26:37;101568.75;;;22.12;25.90
48862;BME280;34681;49.188;-0.374;2023-04-20T08:29:04;101571.13;;;21.44;25.76
48862;BME280;34681;49.188;-0.374;2023-04-20T08:31:30;101561.69;;;20.73;26.37
48862;BME280;34681;49.188;-0.374;2023-04-20T08:34:03;101553.63;;;20.78;26.56
48862;BME280;34681;49.188;-0.374;2023-04-20T08:36:28;101559.19;;;20.63;26.83
48862;BME280;34681;49.188;-0.374;2023-04-20T08:39:03;101560.72;;;20.51;27.60
48862;BME280;34681;49.188;-0.374;2023-04-20T08:41:29;101566.38;;;20.58;27.85
48862;BME280;34681;49.188;-0.374;2023-04-20T08:43:55;101560.72;;;20.81;28.09
48862;BME280;34681;49.188;-0.374;2023-04-20T08:46:20;101557.94;;;21.17;27.79
48862;BME280;34681;49.188;-0.374;2023-04-20T08:48:46;101573.16;;;21.57;27.15
48862;BME280;34681;49.188;-0.374;2023-04-20T08:51:14;101569.16;;;20.28;28.73
48862;BME280;34681;49.188;-0.374;2023-04-20T08:53:41;101561.84;;;20.42;29.11
48862;BME280;34681;49.188;-0.374;2023-04-20T08:56:06;101560.41;;;20.90;27.52
48862;BME280;34681;49.188;-0.374;2023-04-20T08:58:32;101580.50;;;21.07;28.22
48862;BME280;34681;49.188;-0.374;2023-04-20T09:00:58;101575.78;;;20.57;28.17
48862;BME280;34681;49.188;-0.374;2023-04-20T09:03:32;101582.44;;;20.33;28.88
48862;BME280;34681;49.188;-0.374;2023-04-20T09:05:57;101559.06;;;20.12;27.83
48862;BME280;34681;49.188;-0.374;2023-04-20T09:08:36;101573.31;;;19.95;29.84
48862;BME280;34681;49.188;-0.374;2023-04-20T09:11:02;101578.16;;;19.92;30.74
48862;BME280;34681;49.188;-0.374;2023-04-20T09:13:28;101573.19;;;19.88;30.82
48862;BME280;34681;49.188;-0.374;2023-04-20T09:15:53;101570.00;;;19.53;30.78
48862;BME280;34681;49.188;-0.374;2023-04-20T09:18:18;101562.22;;;19.49;31.87
48862;BME280;34681;49.188;-0.374;2023-04-20T09:20:44;101581.09;;;19.53;32.41
48862;BME280;34681;49.188;-0.374;2023-04-20T09:23:14;101560.81;;;18.68;33.99
48862;BME280;34681;49.188;-0.374;2023-04-20T09:25:40;101570.91;;;18.36;34.32
48862;BME280;34681;49.188;-0.374;2023-04-20T09:28:08;101549.59;;;18.45;34.83
48862;BME280;34681;49.188;-0.374;2023-04-20T09:30:43;101558.47;;;18.40;34.78
48862;BME280;34681;49.188;-0.374;2023-04-20T09:33:10;101563.03;;;18.09;33.31
48862;BME280;34681;49.188;-0.374;2023-04-20T09:35:41;101552.16;;;17.42;34.35
48862;BME280;34681;49.188;-0.374;2023-04-20T09:38:07;101558.94;;;17.96;34.16
48862;BME280;34681;49.188;-0.374;2023-04-20T09:40:33;101552.97;;;18.24;34.57
48862;BME280;34681;49.188;-0.374;2023-04-20T09:43:08;101556.84;;;17.58;33.95
48862;BME280;34681;49.188;-0.374;2023-04-20T09:45:37;101546.34;;;16.87;33.97
48862;BME280;34681;49.188;-0.374;2023-04-20T09:48:04;101540.31;;;16.49;33.48
48862;BME280;34681;49.188;-0.374;2023-04-20T09:50:31;101551.47;;;16.05;33.42
48862;BME280;34681;49.188;-0.374;2023-04-20T09:52:56;101557.09;;;15.69;35.67
48862;BME280;34681;49.188;-0.374;2023-04-20T09:55:22;101545.03;;;15.35;36.72
48862;BME280;34681;49.188;-0.374;2023-04-20T09:57:49;101541.81;;;15.22;37.57
48862;BME280;34681;49.188;-0.374;2023-04-20T10:00:15;101550.72;;;15.15;37.69
48862;BME280;34681;49.188;-0.374;2023-04-20T10:02:45;101553.31;;;15.17;36.09
48862;BME280;34681;49.188;-0.374;2023-04-20T10:05:10;101555.16;;;14.81;35.98
48862;BME280;34681;49.188;-0.374;2023-04-20T10:07:36;101574.00;;;14.85;36.33
48862;BME280;34681;49.188;-0.374;2023-04-20T10:10:08;101544.97;;;14.64;37.47
48862;BME280;34681;49.188;-0.374;2023-04-20T10:12:48;101523.25;;;14.60;36.96
48862;BME280;34681;49.188;-0.374;2023-04-20T10:15:15;101544.53;;;14.31;36.63
48862;BME280;34681;49.188;-0.374;2023-04-20T10:17:41;101542.09;;;14.65;37.10
48862;BME280;34681;49.188;-0.374;2023-04-20T10:20:21;101539.00;;;14.41;36.96
48862;BME280;34681;49.188;-0.374;2023-04-20T10:22:47;101520.69;;;14.77;37.11
48862;BME280;34681;49.188;-0.374;2023-04-20T10:25:15;101537.78;;;14.53;36.39
48862;BME280;34681;49.188;-0.374;2023-04-20T10:27:51;101522.94;;;14.36;36.86
48862;BME280;34681;49.188;-0.374;2023-04-20T10:30:17;101524.38;;;14.30;36.36
48862;BME280;34681;49.188;-0.374;2023-04-20T10:32:43;101527.75;;;14.61;37.05
48862;BME280;34681;49.188;-0.374;2023-04-20T10:35:10;101559.88;;;14.71;35.47
48862;BME280;34681;49.188;-0.374;2023-04-20T10:37:49;101513.59;;;14.56;37.61
48862;BME280;34681;49.188;-0.374;2023-04-20T10:40:16;101523.16;;;14.52;36.39
48862;BME280;34681;49.188;-0.374;2023-04-20T10:42:44;101512.16;;;14.52;37.33
48862;BME280;34681;49.188;-0.374;2023-04-20T10:45:11;101510.25;;;14.53;36.79
48862;BME280;34681;49.188;-0.374;2023-04-20T10:47:37;101513.09;;;14.61;36.21
48862;BME280;34681;49.188;-0.374;2023-04-20T10:50:12;101529.69;;;14.51;36.65
48862;BME280;34681;49.188;-0.374;2023-04-20T10:52:40;101533.63;;;14.49;36.13
48862;BME280;34681;49.188;-0.374;2023-04-20T10:55:16;101518.38;;;14.45;36.49
48862;BME280;34681;49.188;-0.374;2023-04-20T10:57:43;101519.38;;;14.53;36.54
48862;BME280;34681;49.188;-0.374;2023-04-20T11:00:26;101529.88;;;14.68;35.90
48862;BME280;34681;49.188;-0.374;2023-04-20T11:02:55;101528.22;;;14.57;35.46
48862;BME280;34681;49.188;-0.374;2023-04-20T11:05:24;101531.88;;;14.48;36.08
48862;BME280;34681;49.188;-0.374;2023-04-20T11:07:59;101518.09;;;14.48;35.78
48862;BME280;34681;49.188;-0.374;2023-04-20T11:10:38;101507.84;;;14.40;36.04
48862;BME280;34681;49.188;-0.374;2023-04-20T11:13:04;101512.34;;;14.41;41.34
48862;BME280;34681;49.188;-0.374;2023-04-20T11:15:33;101522.38;;;14.60;42.72
48862;BME280;34681;49.188;-0.374;2023-04-20T11:18:06;101501.16;;;14.43;43.53
48862;BME280;34681;49.188;-0.374;2023-04-20T11:20:32;101504.41;;;14.28;41.39
48862;BME280;34681;49.188;-0.374;2023-04-20T11:22:57;101503.75;;;14.44;40.53
48862;BME280;34681;49.188;-0.374;2023-04-20T11:25:24;101507.59;;;14.61;40.24
48862;BME280;34681;49.188;-0.374;2023-04-20T11:27:49;101492.63;;;14.46;38.57
48862;BME280;34681;49.188;-0.374;2023-04-20T11:30:15;101528.38;;;14.18;37.88
48862;BME280;34681;49.188;-0.374;2023-04-20T11:32:40;101494.47;;;14.18;38.87
48862;BME280;34681;49.188;-0.374;2023-04-20T11:35:07;101500.00;;;14.45;42.50
48862;BME280;34681;49.188;-0.374;2023-04-20T11:37:48;101504.50;;;14.46;45.26
48862;BME280;34681;49.188;-0.374;2023-04-20T11:40:15;101507.38;;;14.45;45.55
48862;BME280;34681;49.188;-0.374;2023-04-20T11:42:41;101496.16;;;14.28;44.38
48862;BME280;34681;49.188;-0.374;2023-04-20T11:45:06;101501.91;;;14.35;44.64
48862;BME280;34681;49.188;-0.374;2023-04-20T11:47:32;101488.22;;;14.53;41.43
48862;BME280;34681;49.188;-0.374;2023-04-20T11:49:57;101493.75;;;14.71;39.32
48862;BME280;34681;49.188;-0.374;2023-04-20T11:52:23;101500.59;;;14.39;38.16
48862;BME280;34681;49.188;-0.374;2023-04-20T11:54:48;101496.41;;;14.35;37.84
48862;BME280;34681;49.188;-0.374;2023-04-20T11:57:14;101504.06;;;14.41;38.41
48862;BME280;34681;49.188;-0.374;2023-04-20T11:59:39;101479.03;;;14.34;37.97
48862;BME280;34681;49.188;-0.374;2023-04-20T12:02:07;101525.50;;;14.47;37.43
48862;BME280;34681;49.188;-0.374;2023-04-20T12:04:32;101483.84;;;14.23;37.69
48862;BME280;34681;49.188;-0.374;2023-04-20T12:06:59;101480.94;;;14.34;38.89
48862;BME280;34681;49.188;-0.374;2023-04-20T12:09:25;101498.34;;;14.25;37.86
48862;BME280;34681;49.188;-0.374;2023-04-20T12:11:51;101484.00;;;14.21;39.30
48862;BME280;34681;49.188;-0.374;2023-04-20T12:14:16;101492.97;;;14.33;42.52
48862;BME280;34681;49.188;-0.374;2023-04-20T12:16:41;101486.97;;;14.38;44.31
48862;BME280;34681;49.188;-0.374;2023-04-20T12:19:07;101504.59;;;14.54;43.39
48862;BME280;34681;49.188;-0.374;2023-04-20T12:21:33;101499.88;;;14.37;43.58
48862;BME280;34681;49.188;-0.374;2023-04-20T12:23:58;101482.28;;;14.20;43.12
48862;BME280;34681;49.188;-0.374;2023-04-20T12:26:23;101485.72;;;14.32;44.19
48862;BME280;34681;49.188;-0.374;2023-04-20T12:28:49;101476.28;;;14.34;45.38
48862;BME280;34681;49.188;-0.374;2023-04-20T12:31:14;101498.25;;;14.44;44.11
48862;BME280;34681;49.188;-0.374;2023-04-20T12:33:40;101471.34;;;14.11;42.96
48862;BME280;34681;49.188;-0.374;2023-04-20T12:36:05;101484.78;;;14.14;44.42